createdAt,value
2023-02-03T00:01:06.101Z,10.73
2023-02-03T00:03:33.772Z,10.45
2023-02-03T00:06:03.877Z,10.50
2023-02-03T00:08:32.100Z,10.20
2023-02-03T00:11:00.434Z,10.85
2023-02-03T00:13:28.022Z,10.88
2023-02-03T00:15:55.512Z,10.70
2023-02-03T00:18:23.040Z,9.48
2023-02-03T00:20:50.473Z,9.50
2023-02-03T00:23:18.036Z,8.93
2023-02-03T00:25:45.672Z,10.88
2023-02-03T00:28:13.193Z,10.00
2023-02-03T00:30:40.895Z,10.50
2023-02-03T00:33:08.470Z,8.40
2023-02-03T00:35:39.848Z,8.70
2023-02-03T00:38:07.411Z,9.13
2023-02-03T00:40:35.463Z,8.85
2023-02-03T00:43:03.019Z,10.18
2023-02-03T00:45:30.646Z,9.82
2023-02-03T00:47:58.283Z,9.02
2023-02-03T00:50:26.023Z,12.45
2023-02-03T00:52:53.611Z,7.95
2023-02-03T00:55:21.140Z,9.93
2023-02-03T00:57:48.689Z,11.25
2023-02-03T01:00:16.733Z,12.30
2023-02-03T01:02:44.403Z,12.70
2023-02-03T01:05:12.455Z,12.60
2023-02-03T01:07:40.019Z,12.30
2023-02-03T01:10:08.047Z,11.55
2023-02-03T01:12:35.609Z,12.55
2023-02-03T01:15:03.138Z,11.88
2023-02-03T01:17:31.735Z,12.68
2023-02-03T01:19:59.460Z,9.27
2023-02-03T01:22:32.338Z,7.95
2023-02-03T01:24:59.856Z,8.25
2023-02-03T01:27:27.460Z,6.60
2023-02-03T01:29:57.014Z,6.97
2023-02-03T01:32:24.640Z,7.03
2023-02-03T01:34:52.147Z,7.35
2023-02-03T01:37:19.724Z,7.32
2023-02-03T01:39:48.194Z,6.45
2023-02-03T01:42:34.534Z,6.28
2023-02-03T01:45:02.266Z,8.85
2023-02-03T01:47:36.918Z,7.50
2023-02-03T01:50:14.216Z,6.90
2023-02-03T01:52:44.388Z,6.72
2023-02-03T01:55:17.779Z,7.55
2023-02-03T01:57:54.541Z,7.00
2023-02-03T02:00:22.443Z,7.32
2023-02-03T02:02:50.827Z,6.40
2023-02-03T02:05:48.713Z,5.75
2023-02-03T02:08:18.703Z,6.22
2023-02-03T02:10:46.393Z,7.65
2023-02-03T02:13:16.081Z,6.85
2023-02-03T02:16:11.291Z,6.97
2023-02-03T02:18:42.269Z,5.43
2023-02-03T02:21:31.400Z,6.13
2023-02-03T02:24:23.330Z,6.18
2023-02-03T02:27:03.070Z,6.40
2023-02-03T02:30:05.932Z,8.05
2023-02-03T02:32:48.979Z,7.63
2023-02-03T02:35:21.107Z,5.43
2023-02-03T02:38:13.115Z,7.32
2023-02-03T02:41:00.738Z,6.90
2023-02-03T02:43:28.361Z,6.20
2023-02-03T02:46:31.230Z,5.85
2023-02-03T02:49:21.988Z,6.78
2023-02-03T02:51:53.663Z,8.90
2023-02-03T02:54:25.706Z,8.85
2023-02-03T02:56:58.318Z,9.32
2023-02-03T02:59:28.245Z,8.90
2023-02-03T03:01:55.902Z,9.77
2023-02-03T03:04:26.913Z,9.38
2023-02-03T03:07:08.814Z,11.02
2023-02-03T03:09:43.284Z,10.02
2023-02-03T03:14:49.517Z,9.93
2023-02-03T03:17:24.538Z,10.23
2023-02-03T03:19:56.610Z,11.23
2023-02-03T03:22:37.132Z,11.45
2023-02-03T03:25:15.191Z,13.77
2023-02-03T03:28:05.347Z,11.82
2023-02-03T03:30:38.165Z,10.90
2023-02-03T03:33:08.101Z,12.50
2023-02-03T03:35:59.699Z,11.18
2023-02-03T03:38:36.783Z,13.35
2023-02-03T03:41:16.204Z,11.55
2023-02-03T03:43:47.605Z,10.57
2023-02-03T03:46:22.145Z,11.07
2023-02-03T03:49:01.186Z,11.75
2023-02-03T03:51:37.507Z,11.20
2023-02-03T03:54:09.757Z,11.25
2023-02-03T03:56:45.472Z,10.90
2023-02-03T03:59:17.529Z,11.45
2023-02-03T04:01:45.859Z,12.10
2023-02-03T04:04:15.334Z,11.32
2023-02-03T04:06:42.917Z,12.20
2023-02-03T04:09:10.607Z,12.30
2023-02-03T04:11:56.378Z,16.48
2023-02-03T04:14:23.895Z,15.18
2023-02-03T04:16:51.447Z,14.18
2023-02-03T04:19:18.829Z,14.23
2023-02-03T04:21:46.374Z,12.35
2023-02-03T04:24:14.457Z,13.13
2023-02-03T04:26:41.965Z,12.40
2023-02-03T04:29:09.834Z,12.43
2023-02-03T04:31:38.894Z,12.15
2023-02-03T04:34:06.854Z,12.05
2023-02-03T04:36:34.529Z,11.80
2023-02-03T04:39:02.087Z,13.15
2023-02-03T04:41:29.820Z,12.32
2023-02-03T04:43:57.545Z,12.43
2023-02-03T04:46:25.066Z,12.60
2023-02-03T04:48:52.560Z,13.05
2023-02-03T04:51:22.245Z,11.77
2023-02-03T04:53:52.451Z,12.88
2023-02-03T04:56:19.947Z,13.60
2023-02-03T04:58:47.477Z,13.05
2023-02-03T05:01:14.985Z,12.63
2023-02-03T05:03:42.622Z,13.35
2023-02-03T05:06:10.204Z,12.50
2023-02-03T05:08:37.708Z,13.45
2023-02-03T05:11:06.651Z,12.93
2023-02-03T05:13:34.500Z,11.23
2023-02-03T05:16:02.176Z,11.88
2023-02-03T05:18:29.828Z,11.77
2023-02-03T05:20:57.487Z,10.23
2023-02-03T05:23:25.137Z,10.38
2023-02-03T05:25:52.657Z,11.73
2023-02-03T05:28:20.273Z,13.48
2023-02-03T05:30:47.794Z,13.52
2023-02-03T05:33:15.703Z,12.98
2023-02-03T05:35:43.433Z,11.93
2023-02-03T05:38:10.909Z,13.90
2023-02-03T05:40:57.025Z,14.02
2023-02-03T05:43:24.522Z,14.02
2023-02-03T05:45:52.068Z,13.40
2023-02-03T05:48:19.634Z,11.70
2023-02-03T05:50:47.146Z,11.48
2023-02-03T05:53:14.880Z,12.27
2023-02-03T05:55:42.421Z,11.20
2023-02-03T05:58:10.035Z,11.50
2023-02-03T06:00:37.787Z,9.27
2023-02-03T06:03:05.890Z,11.55
2023-02-03T06:05:35.158Z,12.57
2023-02-03T06:08:02.698Z,12.57
2023-02-03T06:10:30.337Z,12.75
2023-02-03T06:12:57.955Z,12.55
2023-02-03T06:15:25.847Z,13.30
2023-02-03T06:17:53.308Z,10.30
2023-02-03T06:20:21.359Z,9.93
2023-02-03T06:22:48.903Z,11.32
2023-02-03T06:25:16.545Z,11.07
2023-02-03T06:27:44.120Z,8.60
2023-02-03T06:30:12.404Z,10.20
2023-02-03T06:32:39.889Z,10.35
2023-02-03T06:35:07.749Z,4.03
2023-02-03T06:37:38.823Z,4.20
2023-02-03T06:40:06.948Z,10.07
2023-02-03T06:42:34.507Z,10.50
2023-02-03T06:45:02.025Z,8.50
2023-02-03T06:47:31.462Z,7.80
2023-02-03T06:49:58.991Z,7.13
2023-02-03T06:52:26.681Z,7.95
2023-02-03T06:54:54.210Z,10.90
2023-02-03T06:57:21.743Z,12.63
2023-02-03T06:59:49.255Z,12.98
2023-02-03T07:02:17.218Z,11.63
2023-02-03T07:04:45.424Z,9.55
2023-02-03T07:07:13.485Z,9.75
2023-02-03T07:09:41.596Z,8.00
2023-02-03T07:12:10.405Z,7.68
2023-02-03T07:14:39.634Z,10.70
2023-02-03T07:17:09.120Z,10.60
2023-02-03T07:19:36.602Z,11.07
2023-02-03T07:22:05.164Z,10.65
2023-02-03T07:25:18.570Z,11.48
2023-02-03T07:27:52.344Z,12.77
2023-02-03T07:30:20.351Z,17.55
2023-02-03T07:32:51.903Z,15.02
2023-02-03T07:35:20.531Z,13.75
2023-02-03T07:37:48.090Z,15.18
2023-02-03T07:40:25.497Z,14.30
2023-02-03T07:42:56.133Z,15.70
2023-02-03T07:45:25.139Z,16.05
2023-02-03T07:47:52.598Z,17.95
2023-02-03T07:50:20.144Z,18.27
2023-02-03T07:52:47.558Z,17.55
2023-02-03T07:55:15.013Z,17.23
2023-02-03T07:57:46.711Z,17.97
2023-02-03T08:00:16.444Z,16.75
2023-02-03T08:02:44.393Z,17.92
2023-02-03T08:05:13.011Z,18.73
2023-02-03T08:07:41.543Z,17.20
2023-02-03T08:10:13.602Z,16.67
2023-02-03T08:12:46.865Z,15.05
2023-02-03T08:15:15.205Z,15.48
2023-02-03T08:17:43.338Z,15.27
2023-02-03T08:20:13.114Z,15.35
2023-02-03T08:22:40.650Z,13.73
2023-02-03T08:25:09.174Z,13.52
2023-02-03T08:27:36.878Z,13.48
2023-02-03T08:30:04.967Z,13.10
2023-02-03T08:32:34.060Z,14.02
2023-02-03T08:35:01.673Z,13.65
2023-02-03T08:37:32.065Z,13.43
2023-02-03T08:40:00.583Z,12.77
2023-02-03T08:42:28.373Z,13.13
2023-02-03T08:44:56.101Z,13.60
2023-02-03T08:47:23.881Z,14.27
2023-02-03T08:49:51.436Z,14.18
2023-02-03T08:52:19.391Z,14.63
2023-02-03T08:54:47.618Z,13.95
2023-02-03T08:57:15.691Z,13.88
2023-02-03T08:59:44.379Z,13.30
2023-02-03T09:02:16.912Z,14.73
2023-02-03T09:04:45.405Z,13.77
2023-02-03T09:07:15.747Z,12.23
2023-02-03T09:09:43.939Z,14.20
2023-02-03T09:12:13.281Z,14.90
2023-02-03T09:14:43.765Z,14.88
2023-02-03T09:17:13.174Z,15.32
2023-02-03T09:19:40.748Z,17.58
2023-02-03T09:22:08.347Z,19.38
2023-02-03T09:24:36.762Z,17.38
2023-02-03T09:27:04.452Z,20.33
2023-02-03T09:29:34.363Z,19.42
2023-02-03T09:32:07.281Z,20.15
2023-02-03T09:34:34.969Z,21.80
2023-02-03T09:37:02.655Z,20.75
2023-02-03T09:39:30.479Z,21.20
2023-02-03T09:42:09.438Z,23.05
2023-02-03T09:44:55.141Z,21.35
2023-02-03T09:47:29.145Z,20.65
2023-02-03T09:50:02.801Z,20.35
2023-02-03T09:52:42.287Z,20.13
2023-02-03T09:55:54.282Z,19.02
2023-02-03T09:58:26.348Z,20.20
2023-02-03T10:00:58.469Z,16.73
2023-02-03T10:03:46.474Z,16.15
2023-02-03T10:06:32.297Z,15.95
2023-02-03T10:09:18.964Z,15.30
2023-02-03T10:12:05.160Z,14.68
2023-02-03T10:15:03.471Z,12.88
2023-02-03T10:17:36.764Z,11.75
2023-02-03T10:20:22.583Z,9.30
2023-02-03T10:22:57.527Z,9.18
2023-02-03T10:25:28.815Z,9.57
2023-02-03T10:28:01.693Z,8.30
2023-02-03T10:30:38.580Z,9.00
2023-02-03T10:33:18.340Z,8.52
2023-02-03T10:36:15.595Z,7.38
2023-02-03T10:38:45.921Z,7.93
2023-02-03T10:41:15.170Z,6.90
2023-02-03T10:43:48.903Z,7.60
2023-02-03T10:46:20.900Z,7.97
2023-02-03T10:48:52.000Z,7.25
2023-02-03T10:51:21.403Z,8.63
2023-02-03T10:53:55.731Z,7.35
2023-02-03T10:56:31.047Z,8.00
2023-02-03T10:59:00.788Z,7.50
2023-02-03T11:01:44.154Z,8.57
2023-02-03T11:04:28.497Z,8.90
2023-02-03T11:07:06.479Z,6.93
2023-02-03T11:09:37.851Z,7.60
2023-02-03T11:12:17.153Z,6.95
2023-02-03T11:14:54.784Z,7.35
2023-02-03T11:17:27.403Z,7.47
2023-02-03T11:20:07.569Z,7.15
2023-02-03T11:22:38.802Z,6.78
2023-02-03T11:25:24.818Z,7.93
2023-02-03T11:27:56.157Z,6.60
2023-02-03T11:30:27.181Z,7.88
2023-02-03T11:32:55.207Z,7.07
2023-02-03T11:35:29.381Z,7.07
2023-02-03T11:38:03.271Z,6.40
2023-02-03T11:40:34.661Z,4.35
2023-02-03T11:43:06.155Z,4.53
2023-02-03T11:45:43.723Z,4.53
2023-02-03T11:48:11.155Z,4.32
2023-02-03T11:50:54.407Z,3.00
2023-02-03T11:53:56.873Z,4.07
2023-02-03T11:56:52.707Z,4.13
2023-02-03T11:59:43.298Z,4.25
2023-02-03T12:02:48.631Z,3.42
2023-02-03T12:05:28.436Z,4.90
2023-02-03T12:08:10.108Z,5.72
2023-02-03T12:10:51.619Z,5.22
2023-02-03T12:13:21.715Z,4.60
2023-02-03T12:16:22.022Z,5.00
2023-02-03T12:19:11.572Z,4.40
2023-02-03T12:22:29.420Z,4.20
2023-02-03T12:25:18.549Z,4.20
2023-02-03T12:27:57.200Z,3.88
2023-02-03T12:30:47.103Z,3.92
2023-02-03T12:33:28.099Z,4.82
2023-02-03T12:36:04.658Z,4.40
2023-02-03T12:38:44.141Z,4.30
2023-02-03T12:41:21.145Z,4.57
2023-02-03T12:43:52.920Z,4.97
2023-02-03T12:46:32.627Z,4.72
2023-02-03T12:49:12.373Z,3.85
2023-02-03T12:51:47.088Z,6.28
2023-02-03T12:54:26.101Z,6.55
2023-02-03T12:57:01.263Z,9.23
2023-02-03T12:59:33.159Z,9.68
2023-02-03T13:02:18.278Z,8.10
2023-02-03T13:04:56.736Z,6.85
2023-02-03T13:07:30.222Z,6.55
2023-02-03T13:10:04.133Z,6.65
2023-02-03T13:15:28.523Z,5.23
2023-02-03T13:18:05.562Z,7.38
2023-02-03T13:20:39.373Z,8.35
2023-02-03T13:25:54.179Z,8.15
2023-02-03T13:28:33.626Z,9.57
2023-02-03T13:31:37.200Z,9.57
2023-02-03T13:34:29.285Z,9.20
2023-02-03T13:37:13.243Z,8.80
2023-02-03T13:39:54.900Z,8.27
2023-02-03T13:42:22.894Z,8.70
2023-02-03T13:45:13.574Z,6.85
2023-02-03T13:47:48.496Z,6.10
2023-02-03T13:50:30.041Z,5.80
2023-02-03T13:53:03.087Z,6.38
2023-02-03T13:55:39.553Z,5.47
2023-02-03T13:58:29.233Z,4.47
2023-02-03T14:00:56.889Z,4.80
2023-02-03T14:03:27.437Z,4.57
2023-02-03T14:06:01.318Z,5.75
2023-02-03T14:11:33.692Z,4.53
2023-02-03T14:14:10.308Z,4.68
2023-02-03T14:16:42.226Z,5.50
2023-02-03T14:19:33.596Z,5.05
2023-02-03T14:22:18.068Z,5.15
2023-02-03T14:24:50.011Z,6.05
2023-02-03T14:27:29.334Z,6.65
2023-02-03T14:30:19.900Z,6.38
2023-02-03T14:32:58.445Z,7.45
2023-02-03T14:35:37.913Z,7.38
2023-02-03T14:38:14.966Z,9.60
2023-02-03T14:40:56.017Z,8.75
2023-02-03T14:43:50.559Z,8.32
2023-02-03T14:46:54.904Z,6.97
2023-02-03T14:49:51.774Z,7.25
2023-02-03T14:53:23.700Z,5.57
2023-02-03T14:56:17.278Z,6.30
2023-02-03T14:59:02.516Z,5.35
2023-02-03T15:01:36.252Z,7.00
2023-02-03T15:04:12.897Z,7.95
2023-02-03T15:06:46.418Z,7.63
2023-02-03T15:09:23.446Z,8.23
2023-02-03T15:11:51.273Z,9.38
2023-02-03T15:14:25.313Z,8.98
2023-02-03T15:17:01.736Z,10.55
2023-02-03T15:19:49.622Z,9.75
2023-02-03T15:22:26.684Z,8.57
2023-02-03T15:24:58.187Z,8.55
2023-02-03T15:27:28.359Z,7.05
2023-02-03T15:29:59.604Z,8.88
2023-02-03T15:32:30.642Z,9.35
2023-02-03T15:34:59.486Z,10.05
2023-02-03T15:37:37.744Z,8.98
2023-02-03T15:40:16.798Z,9.57
2023-02-03T15:43:05.897Z,9.20
2023-02-03T15:45:35.720Z,8.93
2023-02-03T15:48:37.172Z,7.95
2023-02-03T15:51:12.217Z,8.48
2023-02-03T15:54:01.479Z,9.00
2023-02-03T15:56:44.779Z,8.75
2023-02-03T15:59:35.045Z,8.75
2023-02-03T16:02:27.375Z,8.52
2023-02-03T16:04:55.426Z,10.07
2023-02-03T16:07:29.593Z,11.15
2023-02-03T16:09:58.764Z,11.13
2023-02-03T16:12:28.894Z,12.57
2023-02-03T16:14:57.928Z,11.10
2023-02-03T16:17:33.353Z,9.73
2023-02-03T16:20:13.044Z,9.40
2023-02-03T16:22:40.544Z,9.90
2023-02-03T16:25:23.316Z,10.27
2023-02-03T16:28:39.948Z,9.60
2023-02-03T16:31:36.697Z,10.00
2023-02-03T16:34:33.551Z,10.63
2023-02-03T16:37:19.396Z,10.73
2023-02-03T16:40:05.705Z,10.50
2023-02-03T16:42:59.810Z,9.88
2023-02-03T16:45:45.965Z,9.63
2023-02-03T16:48:32.360Z,10.55
2023-02-03T16:51:07.300Z,11.07
2023-02-03T16:53:35.184Z,11.60
2023-02-03T16:56:07.257Z,12.32
2023-02-03T16:58:35.109Z,13.27
2023-02-03T17:01:05.781Z,10.60
2023-02-03T17:03:35.799Z,9.82
2023-02-03T17:06:06.897Z,12.27
2023-02-03T17:08:35.346Z,12.65
2023-02-03T17:11:05.952Z,10.00
2023-02-03T17:13:34.122Z,10.95
2023-02-03T17:16:01.870Z,11.57
2023-02-03T17:18:29.544Z,15.60
2023-02-03T17:21:05.865Z,15.55
2023-02-03T17:23:33.589Z,16.73
2023-02-03T17:26:01.417Z,16.30
2023-02-03T17:28:29.286Z,17.55
2023-02-03T17:31:06.020Z,17.55
2023-02-03T17:33:35.324Z,15.48
2023-02-03T17:36:07.973Z,15.63
2023-02-03T17:55:15.864Z,16.70
2023-02-03T17:57:43.689Z,18.60
2023-02-03T18:00:11.921Z,16.92
2023-02-03T18:02:43.527Z,16.58
2023-02-03T18:05:11.473Z,15.82
2023-02-03T18:07:39.042Z,14.70
2023-02-03T18:10:06.778Z,13.32
2023-02-03T18:12:34.519Z,13.32
2023-02-03T18:15:02.249Z,15.32
2023-02-03T18:17:31.095Z,13.70
2023-02-03T18:20:00.898Z,14.23
2023-02-03T18:22:28.787Z,14.25
2023-02-03T18:24:56.424Z,15.35
2023-02-03T18:27:23.963Z,14.70
2023-02-03T18:29:51.566Z,13.88
2023-02-03T18:32:20.250Z,14.77
2023-02-03T18:34:47.999Z,16.05
2023-02-03T18:37:15.781Z,14.48
2023-02-03T18:39:43.339Z,14.52
2023-02-03T18:42:11.226Z,15.55
2023-02-03T18:44:39.910Z,13.25
2023-02-03T18:47:08.081Z,13.05
2023-02-03T18:49:45.399Z,13.50
2023-02-03T18:52:12.906Z,13.18
2023-02-03T18:54:40.461Z,13.32
2023-02-03T18:57:13.230Z,12.75
2023-02-03T18:59:40.797Z,12.10
2023-02-03T19:02:11.252Z,13.18
2023-02-03T19:04:41.008Z,12.88
2023-02-03T19:07:08.577Z,11.85
2023-02-03T19:09:39.944Z,11.65
2023-02-03T19:12:08.716Z,12.05
2023-02-03T19:14:36.680Z,11.27
2023-02-03T19:17:04.870Z,11.30
2023-02-03T19:19:32.354Z,12.40
2023-02-03T19:21:59.983Z,10.25
2023-02-03T19:24:27.582Z,11.52
2023-02-03T19:26:55.623Z,11.88
2023-02-03T19:29:23.117Z,11.70
2023-02-03T19:31:51.020Z,12.23
2023-02-03T19:34:18.889Z,13.05
2023-02-03T19:36:47.414Z,12.80
2023-02-03T19:39:15.549Z,10.25
2023-02-03T19:41:43.156Z,10.60
2023-02-03T19:44:10.721Z,10.50
2023-02-03T19:46:38.497Z,11.30
2023-02-03T19:49:13.509Z,11.55
2023-02-03T19:51:42.795Z,11.48
2023-02-03T19:54:15.820Z,10.32
2023-02-03T19:56:44.985Z,11.53
2023-02-03T19:59:12.978Z,12.18
2023-02-03T20:01:40.650Z,10.48
2023-02-03T20:04:08.281Z,12.23
2023-02-03T20:06:36.329Z,11.20
2023-02-03T20:09:06.397Z,12.45
2023-02-03T20:11:38.391Z,11.30
2023-02-03T20:14:14.140Z,12.73
2023-02-03T20:16:43.052Z,14.30
2023-02-03T20:19:10.844Z,12.93
2023-02-03T20:21:38.539Z,14.48
2023-02-03T20:24:06.015Z,16.65
2023-02-03T20:26:33.594Z,16.98
2023-02-03T20:29:01.156Z,17.92
2023-02-03T20:31:29.006Z,17.10
2023-02-03T20:33:56.676Z,16.55
2023-02-03T20:36:24.334Z,18.67
2023-02-03T20:38:52.157Z,18.98
2023-02-03T20:41:19.983Z,19.20
2023-02-03T20:43:48.297Z,18.23
2023-02-03T20:46:18.998Z,21.23
2023-02-03T20:48:46.596Z,18.25
2023-02-03T20:51:16.128Z,20.33
2023-02-03T20:53:44.640Z,21.20
2023-02-03T20:56:18.446Z,19.00
2023-02-03T20:58:46.204Z,17.98
2023-02-03T21:01:22.116Z,16.27
2023-02-03T21:04:07.971Z,15.65
2023-02-03T21:06:36.167Z,15.30
2023-02-03T21:09:18.432Z,15.63
2023-02-03T21:11:46.077Z,14.80
2023-02-03T21:14:23.986Z,19.02
2023-02-03T21:16:54.325Z,13.88
2023-02-03T21:19:33.829Z,12.57
2023-02-03T21:22:17.697Z,12.15
2023-02-03T21:24:59.189Z,10.77
2023-02-03T21:27:32.528Z,12.27
2023-02-03T21:30:02.613Z,11.25
2023-02-03T21:32:40.472Z,10.52
2023-02-03T21:35:31.195Z,11.40
2023-02-03T21:38:04.304Z,12.27
2023-02-03T21:40:34.674Z,10.10
2023-02-03T21:43:03.536Z,10.45
2023-02-03T21:45:42.358Z,11.25
2023-02-03T21:48:29.675Z,10.98
2023-02-03T21:51:01.546Z,10.35
2023-02-03T21:53:33.409Z,10.55
2023-02-03T21:56:25.178Z,9.93
2023-02-03T21:58:57.690Z,11.30
2023-02-03T22:01:27.010Z,10.32
2023-02-03T22:03:56.206Z,10.52
2023-02-03T22:06:26.538Z,11.25
2023-02-03T22:08:56.888Z,10.85
2023-02-03T22:11:27.878Z,11.88
2023-02-03T22:13:55.945Z,13.20
2023-02-03T22:16:24.144Z,11.48
2023-02-03T22:18:52.395Z,12.27
2023-02-03T22:21:20.058Z,12.95
2023-02-03T22:23:48.456Z,15.65
2023-02-03T22:26:17.607Z,15.23
2023-02-03T22:28:45.534Z,14.40
2023-02-03T22:31:13.838Z,15.48
2023-02-03T22:33:42.393Z,14.95
2023-02-03T22:36:11.037Z,15.60
2023-02-03T22:38:40.159Z,16.15
2023-02-03T22:41:09.538Z,16.35
2023-02-03T22:43:37.156Z,15.90
2023-02-03T22:46:07.070Z,15.18
2023-02-03T22:48:34.784Z,15.30
2023-02-03T22:51:02.315Z,15.23
2023-02-03T22:53:29.940Z,24.83
2023-02-03T22:55:57.499Z,20.70
2023-02-03T22:58:25.018Z,23.77
2023-02-03T23:00:52.480Z,22.83
2023-02-03T23:03:20.062Z,22.63
2023-02-03T23:05:47.618Z,23.00
2023-02-03T23:08:15.114Z,21.95
2023-02-03T23:10:42.620Z,20.45
2023-02-03T23:13:10.186Z,21.00
2023-02-03T23:15:37.989Z,18.77
2023-02-03T23:18:06.025Z,19.63
2023-02-03T23:20:33.879Z,20.95
2023-02-03T23:23:01.373Z,21.13
2023-02-03T23:25:28.927Z,20.65
2023-02-03T23:27:56.610Z,19.35
2023-02-03T23:30:24.271Z,20.52
2023-02-03T23:32:51.759Z,20.33
2023-02-03T23:35:37.692Z,18.38
2023-02-03T23:38:05.257Z,19.02
2023-02-03T23:40:33.180Z,18.52
2023-02-03T23:43:00.918Z,19.02
2023-02-03T23:45:28.521Z,17.80
2023-02-03T23:47:56.110Z,18.52
2023-02-03T23:50:23.790Z,17.67
2023-02-03T23:52:51.349Z,18.42
2023-02-03T23:55:21.327Z,19.23
2023-02-03T23:57:48.908Z,19.10
